Basin, Montana
Current Conditions -  °F | °C
As of 11:53 PM on Wednesday 17 Dec 2014 (Local Time) from KBTM Reporting Station
Clear Clear  
Wind Chill:   Ceiling: Unl
Heat Index:   Visibility: 10mi
Dew Point:   Wind: 0mph
Humidity: 87%   Direction: NA
Pressure: 29.98"   Gusts: NA
Location:  46.27°N, 112.26°W
Report Text: KBTM 180653Z AUTO 00000KT 10SM CLR M13/M15 A2998 RMK AO2 SLP215 I1000 T11331150 400221139
Loading
Personal Weather Stations






























Interactive Weather Map New forecast layout! Learn more

10-Day Weather Forecast

Advertisements
Track Severe Weather on mobile